sensor_id;sensor_type;location;lat;lon;timestamp;P1;durP1;ratioP1;P2;durP2;ratioP2
5121;SDS011;2563;52.242;7.956;2023-07-29T00:01:42;8.10;;;3.67;;
5121;SDS011;2563;52.242;7.956;2023-07-29T00:04:08;6.37;;;3.33;;
5121;SDS011;2563;52.242;7.956;2023-07-29T00:06:34;7.90;;;3.57;;
5121;SDS011;2563;52.242;7.956;2023-07-29T00:09:01;6.63;;;3.60;;
5121;SDS011;2563;52.242;7.956;2023-07-29T00:11:27;10.17;;;3.77;;
5121;SDS011;2563;52.242;7.956;2023-07-29T00:13:52;8.63;;;4.00;;
5121;SDS011;2563;52.242;7.956;2023-07-29T00:16:18;9.33;;;3.93;;
5121;SDS011;2563;52.242;7.956;2023-07-29T00:18:46;7.80;;;3.70;;
5121;SDS011;2563;52.242;7.956;2023-07-29T00:21:12;6.53;;;3.70;;
5121;SDS011;2563;52.242;7.956;2023-07-29T00:23:38;7.60;;;3.80;;
5121;SDS011;2563;52.242;7.956;2023-07-29T00:26:03;9.90;;;3.90;;
5121;SDS011;2563;52.242;7.956;2023-07-29T00:28:28;11.27;;;4.53;;
5121;SDS011;2563;52.242;7.956;2023-07-29T00:30:54;9.60;;;3.87;;
5121;SDS011;2563;52.242;7.956;2023-07-29T00:33:19;8.23;;;4.07;;
5121;SDS011;2563;52.242;7.956;2023-07-29T00:35:45;7.93;;;4.53;;
5121;SDS011;2563;52.242;7.956;2023-07-29T00:38:11;6.93;;;3.63;;
5121;SDS011;2563;52.242;7.956;2023-07-29T00:40:36;6.63;;;3.80;;
5121;SDS011;2563;52.242;7.956;2023-07-29T00:43:02;9.20;;;4.10;;
5121;SDS011;2563;52.242;7.956;2023-07-29T00:45:28;7.17;;;3.47;;
5121;SDS011;2563;52.242;7.956;2023-07-29T00:47:55;8.00;;;3.90;;
5121;SDS011;2563;52.242;7.956;2023-07-29T00:50:20;7.63;;;3.60;;
5121;SDS011;2563;52.242;7.956;2023-07-29T00:52:47;7.83;;;3.93;;
5121;SDS011;2563;52.242;7.956;2023-07-29T00:55:13;7.00;;;3.33;;
5121;SDS011;2563;52.242;7.956;2023-07-29T00:57:39;7.03;;;3.30;;
5121;SDS011;2563;52.242;7.956;2023-07-29T01:00:05;8.30;;;4.00;;
5121;SDS011;2563;52.242;7.956;2023-07-29T01:02:31;12.30;;;5.07;;
5121;SDS011;2563;52.242;7.956;2023-07-29T01:04:58;11.70;;;4.30;;
5121;SDS011;2563;52.242;7.956;2023-07-29T01:07:33;9.00;;;4.10;;
5121;SDS011;2563;52.242;7.956;2023-07-29T01:10:28;12.10;;;3.67;;
5121;SDS011;2563;52.242;7.956;2023-07-29T01:13:13;8.80;;;4.87;;
5121;SDS011;2563;52.242;7.956;2023-07-29T01:18:26;6.90;;;3.53;;
5121;SDS011;2563;52.242;7.956;2023-07-29T01:20:58;10.00;;;3.37;;
5121;SDS011;2563;52.242;7.956;2023-07-29T01:23:31;7.67;;;3.57;;
5121;SDS011;2563;52.242;7.956;2023-07-29T01:25:57;7.50;;;4.13;;
5121;SDS011;2563;52.242;7.956;2023-07-29T01:28:22;9.90;;;4.37;;
5121;SDS011;2563;52.242;7.956;2023-07-29T01:30:49;8.50;;;4.03;;
5121;SDS011;2563;52.242;7.956;2023-07-29T01:33:30;8.30;;;4.27;;
5121;SDS011;2563;52.242;7.956;2023-07-29T01:36:03;11.20;;;4.60;;
5121;SDS011;2563;52.242;7.956;2023-07-29T01:38:34;7.50;;;4.20;;
5121;SDS011;2563;52.242;7.956;2023-07-29T01:41:02;10.70;;;3.90;;
5121;SDS011;2563;52.242;7.956;2023-07-29T01:43:31;7.70;;;4.10;;
5121;SDS011;2563;52.242;7.956;2023-07-29T01:45:57;8.10;;;3.80;;
5121;SDS011;2563;52.242;7.956;2023-07-29T01:48:22;7.33;;;4.03;;
5121;SDS011;2563;52.242;7.956;2023-07-29T01:50:48;7.63;;;3.70;;
5121;SDS011;2563;52.242;7.956;2023-07-29T01:53:14;8.53;;;3.87;;
5121;SDS011;2563;52.242;7.956;2023-07-29T01:55:39;10.67;;;3.80;;
5121;SDS011;2563;52.242;7.956;2023-07-29T01:58:05;8.20;;;3.50;;
5121;SDS011;2563;52.242;7.956;2023-07-29T02:00:30;8.63;;;3.70;;
5121;SDS011;2563;52.242;7.956;2023-07-29T02:02:56;12.00;;;4.33;;
5121;SDS011;2563;52.242;7.956;2023-07-29T02:05:21;6.37;;;3.33;;
5121;SDS011;2563;52.242;7.956;2023-07-29T02:07:46;6.83;;;3.40;;
5121;SDS011;2563;52.242;7.956;2023-07-29T02:10:12;8.40;;;3.90;;
5121;SDS011;2563;52.242;7.956;2023-07-29T02:12:37;9.77;;;3.77;;
5121;SDS011;2563;52.242;7.956;2023-07-29T02:15:03;8.10;;;3.70;;
5121;SDS011;2563;52.242;7.956;2023-07-29T02:17:29;7.47;;;4.20;;
5121;SDS011;2563;52.242;7.956;2023-07-29T02:19:55;10.10;;;4.20;;
5121;SDS011;2563;52.242;7.956;2023-07-29T02:22:20;14.20;;;3.63;;
5121;SDS011;2563;52.242;7.956;2023-07-29T02:24:46;9.57;;;4.00;;
5121;SDS011;2563;52.242;7.956;2023-07-29T02:27:11;8.97;;;4.03;;
5121;SDS011;2563;52.242;7.956;2023-07-29T02:29:37;7.70;;;4.17;;
5121;SDS011;2563;52.242;7.956;2023-07-29T02:32:02;7.40;;;3.67;;
5121;SDS011;2563;52.242;7.956;2023-07-29T02:34:28;8.33;;;4.57;;
5121;SDS011;2563;52.242;7.956;2023-07-29T02:36:54;8.20;;;4.30;;
5121;SDS011;2563;52.242;7.956;2023-07-29T02:39:19;8.80;;;5.20;;
5121;SDS011;2563;52.242;7.956;2023-07-29T02:41:45;10.40;;;5.20;;
5121;SDS011;2563;52.242;7.956;2023-07-29T02:44:10;9.73;;;5.20;;
5121;SDS011;2563;52.242;7.956;2023-07-29T02:46:35;10.33;;;5.73;;
5121;SDS011;2563;52.242;7.956;2023-07-29T02:49:01;12.10;;;5.80;;
5121;SDS011;2563;52.242;7.956;2023-07-29T02:51:27;11.03;;;6.27;;
5121;SDS011;2563;52.242;7.956;2023-07-29T02:53:53;12.47;;;6.43;;
5121;SDS011;2563;52.242;7.956;2023-07-29T02:56:18;11.33;;;5.23;;
5121;SDS011;2563;52.242;7.956;2023-07-29T02:58:43;11.40;;;5.70;;
5121;SDS011;2563;52.242;7.956;2023-07-29T03:01:09;11.87;;;6.00;;
5121;SDS011;2563;52.242;7.956;2023-07-29T03:03:35;9.90;;;5.80;;
5121;SDS011;2563;52.242;7.956;2023-07-29T03:06:04;11.57;;;5.87;;
5121;SDS011;2563;52.242;7.956;2023-07-29T03:08:31;14.90;;;5.90;;
5121;SDS011;2563;52.242;7.956;2023-07-29T03:10:57;12.07;;;6.13;;
5121;SDS011;2563;52.242;7.956;2023-07-29T03:13:22;13.40;;;5.93;;
5121;SDS011;2563;52.242;7.956;2023-07-29T03:15:48;10.20;;;6.00;;
5121;SDS011;2563;52.242;7.956;2023-07-29T03:18:13;13.53;;;6.40;;
5121;SDS011;2563;52.242;7.956;2023-07-29T03:20:39;11.63;;;6.27;;
5121;SDS011;2563;52.242;7.956;2023-07-29T03:23:05;12.73;;;6.70;;
5121;SDS011;2563;52.242;7.956;2023-07-29T03:25:30;14.43;;;7.23;;
5121;SDS011;2563;52.242;7.956;2023-07-29T03:27:56;11.50;;;6.40;;
5121;SDS011;2563;52.242;7.956;2023-07-29T03:30:21;11.13;;;6.17;;
5121;SDS011;2563;52.242;7.956;2023-07-29T03:32:49;11.17;;;6.13;;
5121;SDS011;2563;52.242;7.956;2023-07-29T03:35:15;12.07;;;6.70;;
5121;SDS011;2563;52.242;7.956;2023-07-29T03:37:41;12.90;;;6.97;;
5121;SDS011;2563;52.242;7.956;2023-07-29T03:40:07;12.30;;;6.77;;
5121;SDS011;2563;52.242;7.956;2023-07-29T03:42:34;11.90;;;6.70;;
5121;SDS011;2563;52.242;7.956;2023-07-29T03:44:59;13.83;;;7.40;;
5121;SDS011;2563;52.242;7.956;2023-07-29T03:47:24;15.70;;;8.10;;
5121;SDS011;2563;52.242;7.956;2023-07-29T03:49:50;15.73;;;7.93;;
5121;SDS011;2563;52.242;7.956;2023-07-29T03:52:15;13.30;;;7.17;;
5121;SDS011;2563;52.242;7.956;2023-07-29T03:54:40;17.70;;;7.37;;
5121;SDS011;2563;52.242;7.956;2023-07-29T03:57:06;14.37;;;8.27;;
5121;SDS011;2563;52.242;7.956;2023-07-29T03:59:31;13.10;;;8.10;;
5121;SDS011;2563;52.242;7.956;2023-07-29T04:01:57;12.00;;;6.67;;
5121;SDS011;2563;52.242;7.956;2023-07-29T04:04:22;13.63;;;7.70;;
5121;SDS011;2563;52.242;7.956;2023-07-29T04:06:48;16.83;;;7.17;;
5121;SDS011;2563;52.242;7.956;2023-07-29T04:09:13;16.10;;;8.80;;
5121;SDS011;2563;52.242;7.956;2023-07-29T04:11:38;13.67;;;7.50;;
5121;SDS011;2563;52.242;7.956;2023-07-29T04:14:04;14.60;;;7.60;;
5121;SDS011;2563;52.242;7.956;2023-07-29T04:16:29;13.33;;;7.87;;
5121;SDS011;2563;52.242;7.956;2023-07-29T04:18:55;16.10;;;8.30;;
5121;SDS011;2563;52.242;7.956;2023-07-29T04:21:20;17.47;;;9.20;;
5121;SDS011;2563;52.242;7.956;2023-07-29T04:23:45;18.10;;;8.97;;
5121;SDS011;2563;52.242;7.956;2023-07-29T04:26:11;15.67;;;9.47;;
5121;SDS011;2563;52.242;7.956;2023-07-29T04:28:36;17.80;;;8.73;;
5121;SDS011;2563;52.242;7.956;2023-07-29T04:31:01;16.07;;;9.40;;
5121;SDS011;2563;52.242;7.956;2023-07-29T04:33:28;19.73;;;9.80;;
5121;SDS011;2563;52.242;7.956;2023-07-29T04:35:55;15.47;;;9.10;;
5121;SDS011;2563;52.242;7.956;2023-07-29T04:38:20;14.67;;;9.10;;
5121;SDS011;2563;52.242;7.956;2023-07-29T04:40:45;15.93;;;9.27;;
5121;SDS011;2563;52.242;7.956;2023-07-29T04:43:11;14.73;;;8.43;;
5121;SDS011;2563;52.242;7.956;2023-07-29T04:45:41;17.23;;;8.70;;
5121;SDS011;2563;52.242;7.956;2023-07-29T04:48:07;17.33;;;9.67;;
5121;SDS011;2563;52.242;7.956;2023-07-29T04:50:33;16.43;;;9.07;;
5121;SDS011;2563;52.242;7.956;2023-07-29T04:52:58;14.87;;;9.07;;
5121;SDS011;2563;52.242;7.956;2023-07-29T04:55:23;16.53;;;8.97;;
5121;SDS011;2563;52.242;7.956;2023-07-29T04:57:49;14.23;;;8.17;;
5121;SDS011;2563;52.242;7.956;2023-07-29T05:00:14;14.67;;;8.23;;
5121;SDS011;2563;52.242;7.956;2023-07-29T05:02:41;15.30;;;8.70;;
5121;SDS011;2563;52.242;7.956;2023-07-29T05:05:06;16.33;;;8.57;;
5121;SDS011;2563;52.242;7.956;2023-07-29T05:07:32;15.80;;;9.50;;
5121;SDS011;2563;52.242;7.956;2023-07-29T05:09:58;15.33;;;8.43;;
5121;SDS011;2563;52.242;7.956;2023-07-29T05:12:23;16.10;;;9.10;;
5121;SDS011;2563;52.242;7.956;2023-07-29T05:14:49;17.60;;;9.30;;
5121;SDS011;2563;52.242;7.956;2023-07-29T05:17:14;15.50;;;8.77;;
5121;SDS011;2563;52.242;7.956;2023-07-29T05:19:39;16.37;;;9.10;;
5121;SDS011;2563;52.242;7.956;2023-07-29T05:22:05;16.50;;;9.57;;
5121;SDS011;2563;52.242;7.956;2023-07-29T05:24:30;18.00;;;9.90;;
5121;SDS011;2563;52.242;7.956;2023-07-29T05:26:56;16.03;;;8.60;;
5121;SDS011;2563;52.242;7.956;2023-07-29T05:29:21;16.87;;;9.83;;
5121;SDS011;2563;52.242;7.956;2023-07-29T05:31:46;16.70;;;9.77;;
5121;SDS011;2563;52.242;7.956;2023-07-29T05:34:12;16.97;;;10.10;;
5121;SDS011;2563;52.242;7.956;2023-07-29T05:36:37;16.87;;;9.90;;
5121;SDS011;2563;52.242;7.956;2023-07-29T05:39:04;16.07;;;10.37;;
5121;SDS011;2563;52.242;7.956;2023-07-29T05:41:29;17.43;;;9.53;;
5121;SDS011;2563;52.242;7.956;2023-07-29T05:43:54;22.33;;;10.70;;
5121;SDS011;2563;52.242;7.956;2023-07-29T05:46:20;15.60;;;9.50;;
5121;SDS011;2563;52.242;7.956;2023-07-29T05:48:45;15.70;;;9.57;;
5121;SDS011;2563;52.242;7.956;2023-07-29T05:51:10;16.27;;;9.80;;
5121;SDS011;2563;52.242;7.956;2023-07-29T05:53:36;16.93;;;9.80;;
5121;SDS011;2563;52.242;7.956;2023-07-29T05:56:01;16.90;;;9.10;;
5121;SDS011;2563;52.242;7.956;2023-07-29T05:58:27;19.00;;;10.17;;
5121;SDS011;2563;52.242;7.956;2023-07-29T06:00:52;16.60;;;10.00;;
5121;SDS011;2563;52.242;7.956;2023-07-29T06:03:18;14.70;;;9.47;;
5121;SDS011;2563;52.242;7.956;2023-07-29T06:05:43;17.00;;;10.33;;
5121;SDS011;2563;52.242;7.956;2023-07-29T06:08:08;19.37;;;11.33;;
5121;SDS011;2563;52.242;7.956;2023-07-29T06:10:34;16.50;;;9.80;;
5121;SDS011;2563;52.242;7.956;2023-07-29T06:12:59;16.63;;;10.10;;
5121;SDS011;2563;52.242;7.956;2023-07-29T06:15:25;18.80;;;10.77;;
5121;SDS011;2563;52.242;7.956;2023-07-29T06:17:50;18.97;;;10.87;;
5121;SDS011;2563;52.242;7.956;2023-07-29T06:20:21;18.87;;;10.87;;
5121;SDS011;2563;52.242;7.956;2023-07-29T06:22:47;17.67;;;11.70;;
5121;SDS011;2563;52.242;7.956;2023-07-29T06:25:12;18.40;;;10.87;;
5121;SDS011;2563;52.242;7.956;2023-07-29T06:27:37;17.23;;;9.87;;
5121;SDS011;2563;52.242;7.956;2023-07-29T06:30:03;16.97;;;10.23;;
5121;SDS011;2563;52.242;7.956;2023-07-29T06:32:28;15.87;;;9.97;;
5121;SDS011;2563;52.242;7.956;2023-07-29T06:34:54;16.37;;;9.40;;
5121;SDS011;2563;52.242;7.956;2023-07-29T06:37:19;16.93;;;10.30;;
5121;SDS011;2563;52.242;7.956;2023-07-29T06:39:45;15.90;;;10.20;;
5121;SDS011;2563;52.242;7.956;2023-07-29T06:42:11;18.83;;;10.57;;
5121;SDS011;2563;52.242;7.956;2023-07-29T06:44:36;16.43;;;10.70;;
5121;SDS011;2563;52.242;7.956;2023-07-29T06:47:01;18.83;;;10.10;;
5121;SDS011;2563;52.242;7.956;2023-07-29T06:49:27;16.53;;;10.50;;
5121;SDS011;2563;52.242;7.956;2023-07-29T06:51:52;19.67;;;10.37;;
5121;SDS011;2563;52.242;7.956;2023-07-29T06:54:17;16.53;;;10.43;;
5121;SDS011;2563;52.242;7.956;2023-07-29T06:56:43;18.83;;;11.60;;
5121;SDS011;2563;52.242;7.956;2023-07-29T06:59:08;18.03;;;10.63;;
5121;SDS011;2563;52.242;7.956;2023-07-29T07:01:34;23.27;;;9.70;;
5121;SDS011;2563;52.242;7.956;2023-07-29T07:03:59;17.33;;;10.53;;
5121;SDS011;2563;52.242;7.956;2023-07-29T07:06:25;17.17;;;10.57;;
5121;SDS011;2563;52.242;7.956;2023-07-29T07:08:50;19.57;;;11.03;;
5121;SDS011;2563;52.242;7.956;2023-07-29T07:11:16;14.00;;;9.20;;
5121;SDS011;2563;52.242;7.956;2023-07-29T07:13:43;16.97;;;10.33;;
5121;SDS011;2563;52.242;7.956;2023-07-29T07:16:08;15.83;;;9.67;;
5121;SDS011;2563;52.242;7.956;2023-07-29T07:18:33;16.20;;;10.20;;
5121;SDS011;2563;52.242;7.956;2023-07-29T07:20:59;25.43;;;12.43;;
5121;SDS011;2563;52.242;7.956;2023-07-29T07:23:24;36.33;;;11.53;;
5121;SDS011;2563;52.242;7.956;2023-07-29T07:25:49;16.87;;;9.90;;
5121;SDS011;2563;52.242;7.956;2023-07-29T07:28:15;16.00;;;9.90;;
5121;SDS011;2563;52.242;7.956;2023-07-29T07:30:40;19.83;;;10.87;;
5121;SDS011;2563;52.242;7.956;2023-07-29T07:33:09;16.10;;;10.40;;
5121;SDS011;2563;52.242;7.956;2023-07-29T07:35:34;17.97;;;10.30;;
5121;SDS011;2563;52.242;7.956;2023-07-29T07:37:59;15.83;;;9.63;;
5121;SDS011;2563;52.242;7.956;2023-07-29T07:40:27;17.50;;;9.60;;
5121;SDS011;2563;52.242;7.956;2023-07-29T07:42:52;15.23;;;9.07;;
5121;SDS011;2563;52.242;7.956;2023-07-29T07:45:18;12.10;;;7.87;;
5121;SDS011;2563;52.242;7.956;2023-07-29T07:47:43;12.17;;;8.03;;
5121;SDS011;2563;52.242;7.956;2023-07-29T07:50:08;11.67;;;7.03;;
5121;SDS011;2563;52.242;7.956;2023-07-29T07:52:34;11.23;;;5.13;;
5121;SDS011;2563;52.242;7.956;2023-07-29T07:55:00;9.70;;;4.27;;
5121;SDS011;2563;52.242;7.956;2023-07-29T07:57:25;9.80;;;3.73;;
5121;SDS011;2563;52.242;7.956;2023-07-29T07:59:51;5.97;;;2.80;;
5121;SDS011;2563;52.242;7.956;2023-07-29T08:02:17;8.03;;;3.00;;
5121;SDS011;2563;52.242;7.956;2023-07-29T08:04:43;5.50;;;2.50;;
5121;SDS011;2563;52.242;7.956;2023-07-29T08:07:08;5.80;;;2.57;;
5121;SDS011;2563;52.242;7.956;2023-07-29T08:09:34;6.00;;;2.83;;
5121;SDS011;2563;52.242;7.956;2023-07-29T08:11:59;5.70;;;2.80;;
5121;SDS011;2563;52.242;7.956;2023-07-29T08:14:24;5.20;;;2.10;;
5121;SDS011;2563;52.242;7.956;2023-07-29T08:16:50;4.83;;;1.90;;
5121;SDS011;2563;52.242;7.956;2023-07-29T08:19:15;4.70;;;1.87;;
5121;SDS011;2563;52.242;7.956;2023-07-29T08:21:40;3.53;;;1.37;;
5121;SDS011;2563;52.242;7.956;2023-07-29T08:24:05;5.00;;;1.93;;
5121;SDS011;2563;52.242;7.956;2023-07-29T08:26:32;3.40;;;1.30;;
5121;SDS011;2563;52.242;7.956;2023-07-29T08:28:57;4.07;;;1.50;;
5121;SDS011;2563;52.242;7.956;2023-07-29T08:31:23;4.17;;;1.10;;
5121;SDS011;2563;52.242;7.956;2023-07-29T08:33:48;3.60;;;1.17;;
5121;SDS011;2563;52.242;7.956;2023-07-29T08:36:13;4.97;;;1.40;;
5121;SDS011;2563;52.242;7.956;2023-07-29T08:38:39;5.80;;;1.90;;
5121;SDS011;2563;52.242;7.956;2023-07-29T08:41:14;3.97;;;1.40;;
5121;SDS011;2563;52.242;7.956;2023-07-29T08:46:28;3.47;;;1.33;;
5121;SDS011;2563;52.242;7.956;2023-07-29T08:48:54;3.97;;;1.53;;
5121;SDS011;2563;52.242;7.956;2023-07-29T08:51:20;3.63;;;1.40;;
5121;SDS011;2563;52.242;7.956;2023-07-29T08:53:48;4.60;;;1.53;;
5121;SDS011;2563;52.242;7.956;2023-07-29T08:56:14;4.40;;;1.73;;
5121;SDS011;2563;52.242;7.956;2023-07-29T08:58:40;6.83;;;1.50;;
5121;SDS011;2563;52.242;7.956;2023-07-29T09:01:06;3.70;;;1.30;;
5121;SDS011;2563;52.242;7.956;2023-07-29T09:03:31;2.87;;;1.10;;
5121;SDS011;2563;52.242;7.956;2023-07-29T09:05:57;3.37;;;1.27;;
5121;SDS011;2563;52.242;7.956;2023-07-29T09:08:24;5.80;;;1.53;;
5121;SDS011;2563;52.242;7.956;2023-07-29T09:10:51;4.23;;;1.10;;
5121;SDS011;2563;52.242;7.956;2023-07-29T09:13:17;3.43;;;1.23;;
5121;SDS011;2563;52.242;7.956;2023-07-29T09:15:42;6.73;;;1.90;;
5121;SDS011;2563;52.242;7.956;2023-07-29T09:18:13;3.10;;;1.10;;
5121;SDS011;2563;52.242;7.956;2023-07-29T09:20:40;3.03;;;1.20;;
5121;SDS011;2563;52.242;7.956;2023-07-29T09:23:09;6.43;;;1.00;;
5121;SDS011;2563;52.242;7.956;2023-07-29T09:25:35;8.33;;;1.10;;
5121;SDS011;2563;52.242;7.956;2023-07-29T09:28:01;2.83;;;1.23;;
5121;SDS011;2563;52.242;7.956;2023-07-29T09:30:33;3.30;;;1.10;;
5121;SDS011;2563;52.242;7.956;2023-07-29T09:32:59;2.47;;;0.80;;
5121;SDS011;2563;52.242;7.956;2023-07-29T09:35:27;5.50;;;2.57;;
5121;SDS011;2563;52.242;7.956;2023-07-29T09:37:55;3.03;;;1.10;;
5121;SDS011;2563;52.242;7.956;2023-07-29T09:40:20;3.30;;;1.33;;
5121;SDS011;2563;52.242;7.956;2023-07-29T09:42:49;6.83;;;3.40;;
5121;SDS011;2563;52.242;7.956;2023-07-29T09:45:19;2.30;;;0.80;;
5121;SDS011;2563;52.242;7.956;2023-07-29T09:47:48;3.57;;;1.40;;
5121;SDS011;2563;52.242;7.956;2023-07-29T09:50:14;2.90;;;1.30;;
5121;SDS011;2563;52.242;7.956;2023-07-29T09:52:39;3.53;;;1.60;;
5121;SDS011;2563;52.242;7.956;2023-07-29T09:55:05;6.17;;;2.23;;
5121;SDS011;2563;52.242;7.956;2023-07-29T09:57:31;4.43;;;1.80;;
5121;SDS011;2563;52.242;7.956;2023-07-29T09:59:57;3.63;;;1.70;;
5121;SDS011;2563;52.242;7.956;2023-07-29T10:02:23;2.80;;;1.10;;
5121;SDS011;2563;52.242;7.956;2023-07-29T10:04:50;2.80;;;1.40;;
5121;SDS011;2563;52.242;7.956;2023-07-29T10:07:17;3.33;;;1.50;;
5121;SDS011;2563;52.242;7.956;2023-07-29T10:09:43;2.60;;;1.23;;
5121;SDS011;2563;52.242;7.956;2023-07-29T10:12:11;2.57;;;1.00;;
5121;SDS011;2563;52.242;7.956;2023-07-29T10:14:37;4.80;;;1.80;;
5121;SDS011;2563;52.242;7.956;2023-07-29T10:17:04;2.30;;;1.17;;
5121;SDS011;2563;52.242;7.956;2023-07-29T10:19:30;4.37;;;1.53;;
5121;SDS011;2563;52.242;7.956;2023-07-29T10:21:58;3.00;;;1.17;;
5121;SDS011;2563;52.242;7.956;2023-07-29T10:24:26;2.93;;;1.60;;
5121;SDS011;2563;52.242;7.956;2023-07-29T10:26:57;5.63;;;2.60;;
5121;SDS011;2563;52.242;7.956;2023-07-29T10:29:24;3.30;;;1.47;;
5121;SDS011;2563;52.242;7.956;2023-07-29T10:31:53;2.83;;;1.30;;
5121;SDS011;2563;52.242;7.956;2023-07-29T10:34:22;3.07;;;1.10;;
5121;SDS011;2563;52.242;7.956;2023-07-29T10:36:48;3.60;;;1.63;;
5121;SDS011;2563;52.242;7.956;2023-07-29T10:39:14;4.20;;;1.60;;
5121;SDS011;2563;52.242;7.956;2023-07-29T10:47:14;4.20;;;2.10;;
5121;SDS011;2563;52.242;7.956;2023-07-29T10:49:49;3.43;;;1.20;;
5121;SDS011;2563;52.242;7.956;2023-07-29T10:52:27;3.10;;;1.60;;
5121;SDS011;2563;52.242;7.956;2023-07-29T10:54:53;2.60;;;0.97;;
5121;SDS011;2563;52.242;7.956;2023-07-29T10:57:31;2.30;;;0.93;;
5121;SDS011;2563;52.242;7.956;2023-07-29T10:59:58;2.80;;;1.17;;
5121;SDS011;2563;52.242;7.956;2023-07-29T11:02:59;2.73;;;1.20;;
5121;SDS011;2563;52.242;7.956;2023-07-29T11:08:19;1.80;;;0.73;;
5121;SDS011;2563;52.242;7.956;2023-07-29T11:11:05;2.90;;;1.30;;
5121;SDS011;2563;52.242;7.956;2023-07-29T11:13:33;2.13;;;0.90;;
5121;SDS011;2563;52.242;7.956;2023-07-29T11:16:01;2.53;;;1.00;;
5121;SDS011;2563;52.242;7.956;2023-07-29T11:18:28;2.67;;;1.00;;
5121;SDS011;2563;52.242;7.956;2023-07-29T11:20:56;2.30;;;1.10;;
5121;SDS011;2563;52.242;7.956;2023-07-29T11:25:55;2.40;;;1.10;;
5121;SDS011;2563;52.242;7.956;2023-07-29T11:28:21;2.50;;;1.27;;
5121;SDS011;2563;52.242;7.956;2023-07-29T11:30:47;3.33;;;1.23;;
5121;SDS011;2563;52.242;7.956;2023-07-29T11:33:12;3.90;;;1.23;;
5121;SDS011;2563;52.242;7.956;2023-07-29T11:35:38;3.10;;;1.40;;
5121;SDS011;2563;52.242;7.956;2023-07-29T11:38:03;2.40;;;1.17;;
5121;SDS011;2563;52.242;7.956;2023-07-29T11:40:29;2.20;;;1.03;;
5121;SDS011;2563;52.242;7.956;2023-07-29T11:42:54;2.40;;;1.30;;
5121;SDS011;2563;52.242;7.956;2023-07-29T11:45:20;2.17;;;1.13;;
5121;SDS011;2563;52.242;7.956;2023-07-29T11:47:48;2.40;;;1.17;;
5121;SDS011;2563;52.242;7.956;2023-07-29T11:50:13;2.57;;;1.20;;
5121;SDS011;2563;52.242;7.956;2023-07-29T11:52:42;3.70;;;1.30;;
5121;SDS011;2563;52.242;7.956;2023-07-29T11:55:09;3.63;;;1.60;;
5121;SDS011;2563;52.242;7.956;2023-07-29T11:57:38;4.70;;;1.43;;
5121;SDS011;2563;52.242;7.956;2023-07-29T12:00:05;3.07;;;1.50;;
5121;SDS011;2563;52.242;7.956;2023-07-29T12:02:32;4.17;;;1.73;;
5121;SDS011;2563;52.242;7.956;2023-07-29T12:05:01;3.30;;;1.70;;
5121;SDS011;2563;52.242;7.956;2023-07-29T12:07:28;3.10;;;1.40;;
5121;SDS011;2563;52.242;7.956;2023-07-29T12:09:53;4.03;;;1.80;;
5121;SDS011;2563;52.242;7.956;2023-07-29T12:12:19;3.23;;;1.77;;
5121;SDS011;2563;52.242;7.956;2023-07-29T12:14:47;7.43;;;2.23;;
5121;SDS011;2563;52.242;7.956;2023-07-29T12:17:13;3.10;;;1.57;;
5121;SDS011;2563;52.242;7.956;2023-07-29T12:19:39;2.90;;;1.70;;
5121;SDS011;2563;52.242;7.956;2023-07-29T12:22:06;4.13;;;1.57;;
5121;SDS011;2563;52.242;7.956;2023-07-29T12:24:33;3.80;;;1.70;;
5121;SDS011;2563;52.242;7.956;2023-07-29T12:27:00;2.57;;;1.47;;
5121;SDS011;2563;52.242;7.956;2023-07-29T12:29:26;6.07;;;1.50;;
5121;SDS011;2563;52.242;7.956;2023-07-29T12:31:58;2.40;;;1.50;;
5121;SDS011;2563;52.242;7.956;2023-07-29T12:34:28;3.50;;;1.93;;
5121;SDS011;2563;52.242;7.956;2023-07-29T12:36:55;4.07;;;1.70;;
5121;SDS011;2563;52.242;7.956;2023-07-29T12:39:22;2.63;;;1.53;;
5121;SDS011;2563;52.242;7.956;2023-07-29T12:41:56;2.83;;;1.57;;
5121;SDS011;2563;52.242;7.956;2023-07-29T12:44:23;2.90;;;1.43;;
5121;SDS011;2563;52.242;7.956;2023-07-29T12:46:49;2.40;;;1.37;;
5121;SDS011;2563;52.242;7.956;2023-07-29T12:49:15;3.07;;;1.40;;
5121;SDS011;2563;52.242;7.956;2023-07-29T12:51:41;2.13;;;1.30;;
5121;SDS011;2563;52.242;7.956;2023-07-29T12:54:06;2.20;;;1.20;;
5121;SDS011;2563;52.242;7.956;2023-07-29T12:56:32;2.00;;;1.20;;
5121;SDS011;2563;52.242;7.956;2023-07-29T12:58:58;2.43;;;1.33;;
5121;SDS011;2563;52.242;7.956;2023-07-29T13:01:24;3.67;;;1.77;;
5121;SDS011;2563;52.242;7.956;2023-07-29T13:03:50;2.90;;;1.77;;
5121;SDS011;2563;52.242;7.956;2023-07-29T13:06:16;2.70;;;1.53;;
5121;SDS011;2563;52.242;7.956;2023-07-29T13:08:41;3.63;;;1.33;;
5121;SDS011;2563;52.242;7.956;2023-07-29T13:11:07;3.63;;;2.57;;
5121;SDS011;2563;52.242;7.956;2023-07-29T13:13:33;2.20;;;1.50;;
5121;SDS011;2563;52.242;7.956;2023-07-29T13:15:58;4.63;;;1.80;;
5121;SDS011;2563;52.242;7.956;2023-07-29T13:18:24;3.40;;;1.90;;
5121;SDS011;2563;52.242;7.956;2023-07-29T13:20:49;2.90;;;1.70;;
5121;SDS011;2563;52.242;7.956;2023-07-29T13:23:15;2.93;;;1.63;;
5121;SDS011;2563;52.242;7.956;2023-07-29T13:25:41;3.17;;;1.80;;
5121;SDS011;2563;52.242;7.956;2023-07-29T13:28:06;3.00;;;1.80;;
5121;SDS011;2563;52.242;7.956;2023-07-29T13:30:32;2.90;;;1.73;;
5121;SDS011;2563;52.242;7.956;2023-07-29T13:32:58;2.80;;;1.63;;
5121;SDS011;2563;52.242;7.956;2023-07-29T13:35:23;2.87;;;1.50;;
5121;SDS011;2563;52.242;7.956;2023-07-29T13:37:49;6.63;;;2.50;;
5121;SDS011;2563;52.242;7.956;2023-07-29T13:40:14;2.73;;;1.80;;
5121;SDS011;2563;52.242;7.956;2023-07-29T13:42:39;2.60;;;1.77;;
5121;SDS011;2563;52.242;7.956;2023-07-29T13:45:05;4.43;;;1.80;;
5121;SDS011;2563;52.242;7.956;2023-07-29T13:47:31;2.70;;;1.80;;
5121;SDS011;2563;52.242;7.956;2023-07-29T13:49:56;2.80;;;1.90;;
5121;SDS011;2563;52.242;7.956;2023-07-29T13:52:21;3.20;;;1.97;;
5121;SDS011;2563;52.242;7.956;2023-07-29T13:54:47;3.80;;;2.47;;
5121;SDS011;2563;52.242;7.956;2023-07-29T13:57:12;6.23;;;2.23;;
5121;SDS011;2563;52.242;7.956;2023-07-29T13:59:37;3.47;;;2.10;;
5121;SDS011;2563;52.242;7.956;2023-07-29T14:02:06;3.07;;;2.10;;
5121;SDS011;2563;52.242;7.956;2023-07-29T14:04:32;3.40;;;1.73;;
5121;SDS011;2563;52.242;7.956;2023-07-29T14:06:58;3.20;;;1.90;;
5121;SDS011;2563;52.242;7.956;2023-07-29T14:09:24;3.27;;;2.07;;
5121;SDS011;2563;52.242;7.956;2023-07-29T14:11:49;3.10;;;1.90;;
5121;SDS011;2563;52.242;7.956;2023-07-29T14:14:15;4.60;;;2.57;;
5121;SDS011;2563;52.242;7.956;2023-07-29T14:16:40;3.53;;;2.20;;
5121;SDS011;2563;52.242;7.956;2023-07-29T14:19:05;2.63;;;1.90;;
5121;SDS011;2563;52.242;7.956;2023-07-29T14:21:31;4.80;;;2.30;;
5121;SDS011;2563;52.242;7.956;2023-07-29T14:23:56;5.67;;;2.00;;
5121;SDS011;2563;52.242;7.956;2023-07-29T14:26:21;3.30;;;2.37;;
5121;SDS011;2563;52.242;7.956;2023-07-29T14:28:47;5.17;;;2.80;;
5121;SDS011;2563;52.242;7.956;2023-07-29T14:31:14;3.70;;;1.83;;
5121;SDS011;2563;52.242;7.956;2023-07-29T14:33:39;2.53;;;1.53;;
5121;SDS011;2563;52.242;7.956;2023-07-29T14:36:04;3.97;;;2.33;;
5121;SDS011;2563;52.242;7.956;2023-07-29T14:38:32;4.60;;;2.53;;
5121;SDS011;2563;52.242;7.956;2023-07-29T14:40:57;3.63;;;2.03;;
5121;SDS011;2563;52.242;7.956;2023-07-29T14:43:23;5.27;;;2.60;;
5121;SDS011;2563;52.242;7.956;2023-07-29T14:45:48;7.80;;;2.20;;
5121;SDS011;2563;52.242;7.956;2023-07-29T14:48:14;2.93;;;1.97;;
5121;SDS011;2563;52.242;7.956;2023-07-29T14:50:39;5.63;;;2.77;;
5121;SDS011;2563;52.242;7.956;2023-07-29T14:53:04;4.60;;;2.20;;
5121;SDS011;2563;52.242;7.956;2023-07-29T14:55:30;4.43;;;2.07;;
5121;SDS011;2563;52.242;7.956;2023-07-29T14:57:55;5.83;;;2.70;;
5121;SDS011;2563;52.242;7.956;2023-07-29T15:00:20;3.90;;;2.07;;
5121;SDS011;2563;52.242;7.956;2023-07-29T15:02:46;3.30;;;1.83;;
5121;SDS011;2563;52.242;7.956;2023-07-29T15:05:11;4.10;;;2.20;;
5121;SDS011;2563;52.242;7.956;2023-07-29T15:07:37;3.40;;;2.13;;
5121;SDS011;2563;52.242;7.956;2023-07-29T15:10:02;3.20;;;2.10;;
5121;SDS011;2563;52.242;7.956;2023-07-29T15:12:28;3.33;;;1.90;;
5121;SDS011;2563;52.242;7.956;2023-07-29T15:14:53;3.27;;;1.87;;
5121;SDS011;2563;52.242;7.956;2023-07-29T15:17:18;3.30;;;2.13;;
5121;SDS011;2563;52.242;7.956;2023-07-29T15:19:44;2.87;;;1.70;;
5121;SDS011;2563;52.242;7.956;2023-07-29T15:22:09;3.53;;;1.90;;